createdAt,value
2022-10-19T00:01:38.915Z,97269.41
2022-10-19T00:04:08.656Z,97260.16
2022-10-19T00:06:36.858Z,97264.63
2022-10-19T00:09:09.900Z,97254.09
2022-10-19T00:11:40.539Z,97257.97
2022-10-19T00:14:10.577Z,97263.25
2022-10-19T00:16:38.304Z,97239.19
2022-10-19T00:19:09.149Z,97274.16
2022-10-19T00:21:36.028Z,97257.19
2022-10-19T00:24:02.690Z,97239.03
2022-10-19T00:26:29.363Z,97277.72
2022-10-19T00:28:56.821Z,97280.50
2022-10-19T00:31:24.297Z,97275.22
2022-10-19T00:33:51.636Z,97262.00
2022-10-19T00:36:24.369Z,97270.25
2022-10-19T00:38:51.886Z,97270.69
2022-10-19T00:41:20.656Z,97262.78
2022-10-19T00:44:26.979Z,97266.84
2022-10-19T00:46:53.811Z,97257.28
2022-10-19T00:49:24.656Z,97273.38
2022-10-19T00:51:55.645Z,97278.88
2022-10-19T00:54:23.554Z,97259.44
2022-10-19T00:56:53.413Z,97271.97
2022-10-19T00:59:22.582Z,97235.03
2022-10-19T01:01:49.909Z,97281.56
2022-10-19T01:04:17.014Z,97262.50
2022-10-19T01:06:43.685Z,97260.91
2022-10-19T01:09:10.333Z,97261.63
2022-10-19T01:12:03.019Z,97289.25
2022-10-19T01:14:38.646Z,97293.97
2022-10-19T01:17:26.656Z,97286.59
2022-10-19T01:20:04.285Z,97281.44
2022-10-19T01:22:30.847Z,97287.69
2022-10-19T01:25:00.633Z,97289.25
2022-10-19T01:27:34.124Z,97259.84
2022-10-19T01:30:17.490Z,97276.09
2022-10-19T01:32:44.074Z,97273.28
2022-10-19T01:35:24.669Z,97249.09
2022-10-19T01:38:12.781Z,97268.25
2022-10-19T01:40:53.917Z,97268.56
2022-10-19T01:43:43.795Z,97249.75
2022-10-19T01:46:18.906Z,97220.84
2022-10-19T01:48:54.489Z,97234.94
2022-10-19T01:51:30.381Z,97242.59
2022-10-19T01:54:00.908Z,97238.88
2022-10-19T01:56:30.721Z,97248.88
2022-10-19T01:59:01.674Z,97237.94
2022-10-19T02:01:33.621Z,97236.66
2022-10-19T02:04:02.186Z,97209.72
2022-10-19T02:06:28.934Z,97205.84
2022-10-19T02:08:55.822Z,97174.16
2022-10-19T02:11:24.061Z,97240.72
2022-10-19T02:14:03.911Z,97199.78
2022-10-19T02:16:38.112Z,97238.16
2022-10-19T02:19:08.691Z,97194.28
2022-10-19T02:21:35.473Z,97193.03
2022-10-19T02:24:02.063Z,97187.69
2022-10-19T02:26:28.660Z,97170.13
2022-10-19T02:28:56.417Z,97207.59
2022-10-19T02:31:23.984Z,97142.56
2022-10-19T02:33:51.138Z,97196.56
2022-10-19T02:36:18.662Z,97213.44
2022-10-19T02:38:45.320Z,97194.88
2022-10-19T02:41:50.361Z,97223.41
2022-10-19T02:44:25.623Z,97199.44
2022-10-19T02:46:58.883Z,97230.44
2022-10-19T02:49:25.738Z,97203.66
2022-10-19T02:52:04.442Z,97204.69
2022-10-19T02:54:31.203Z,97185.09
2022-10-19T02:56:57.838Z,97202.16
2022-10-19T02:59:25.071Z,97169.28
2022-10-19T03:01:52.114Z,97221.00
2022-10-19T03:04:18.742Z,97210.09
2022-10-19T03:06:45.339Z,97170.84
2022-10-19T03:09:11.959Z,97163.63
2022-10-19T03:11:38.574Z,97206.97
2022-10-19T03:14:05.181Z,97176.66
2022-10-19T03:16:31.762Z,97163.31
2022-10-19T03:18:58.325Z,97208.13
2022-10-19T03:21:24.903Z,97177.88
2022-10-19T03:23:51.496Z,97178.19
2022-10-19T03:26:18.403Z,97178.88
2022-10-19T03:28:45.164Z,97192.94
2022-10-19T03:31:12.002Z,97191.19
2022-10-19T03:33:38.730Z,97100.97
2022-10-19T03:36:26.111Z,97152.31
2022-10-19T03:38:54.597Z,97174.75
2022-10-19T03:41:22.969Z,97152.00
2022-10-19T03:43:50.103Z,97190.66
2022-10-19T03:46:17.082Z,97191.53
2022-10-19T03:48:44.431Z,97185.69
2022-10-19T03:51:20.686Z,97205.31
2022-10-19T03:53:48.559Z,97206.88
2022-10-19T03:56:17.712Z,97204.84
2022-10-19T03:58:45.781Z,97179.84
2022-10-19T04:01:23.739Z,97205.97
2022-10-19T04:03:55.170Z,97180.09
2022-10-19T04:06:26.204Z,97180.41
2022-10-19T04:08:53.117Z,97194.66
2022-10-19T04:11:24.152Z,97223.75
2022-10-19T04:13:52.204Z,97180.50
2022-10-19T04:16:19.726Z,97199.63
2022-10-19T04:18:46.942Z,97211.94
2022-10-19T04:21:20.927Z,97219.69
2022-10-19T04:23:47.632Z,97227.31
2022-10-19T04:26:14.206Z,97217.53
2022-10-19T04:28:40.914Z,97217.91
2022-10-19T04:31:07.898Z,97211.88
2022-10-19T04:33:34.874Z,97185.31
2022-10-19T04:36:05.047Z,97213.63
2022-10-19T04:38:31.835Z,97215.75
2022-10-19T04:41:06.864Z,97168.69
2022-10-19T04:43:33.939Z,97195.44
2022-10-19T04:46:05.775Z,97197.31
2022-10-19T04:48:34.319Z,97225.16
2022-10-19T04:51:01.015Z,97211.38
2022-10-19T04:53:27.714Z,97222.72
2022-10-19T04:55:54.579Z,97206.50
2022-10-19T04:58:21.305Z,97194.09
2022-10-19T05:00:48.094Z,97229.56
2022-10-19T05:03:15.170Z,97228.00
2022-10-19T05:05:41.845Z,97201.63
2022-10-19T05:08:09.887Z,97204.28
2022-10-19T05:10:37.706Z,97214.31
2022-10-19T05:13:04.931Z,97224.47
2022-10-19T05:15:31.933Z,97185.50
2022-10-19T05:17:58.678Z,97185.22
2022-10-19T05:20:25.632Z,97186.28
2022-10-19T05:22:52.250Z,97177.91
2022-10-19T05:25:18.860Z,97189.88
2022-10-19T05:27:45.801Z,97154.06
2022-10-19T05:30:14.383Z,97182.75
2022-10-19T05:32:40.972Z,97157.09
2022-10-19T05:35:08.020Z,97199.47
2022-10-19T05:37:34.835Z,97173.69
2022-10-19T05:40:01.803Z,97157.97
2022-10-19T05:42:28.483Z,97163.25
2022-10-19T05:44:55.101Z,97200.56
2022-10-19T05:47:21.728Z,97186.59
2022-10-19T05:49:48.308Z,97158.66
2022-10-19T05:52:15.259Z,97173.59
2022-10-19T05:54:42.285Z,97151.69
2022-10-19T05:57:08.858Z,97170.16
2022-10-19T05:59:35.469Z,97192.34
2022-10-19T06:02:02.144Z,97198.88
2022-10-19T06:04:28.734Z,97159.69
2022-10-19T06:06:55.329Z,97162.25
2022-10-19T06:09:21.901Z,97191.09
2022-10-19T06:11:48.574Z,97157.41
2022-10-19T06:14:16.167Z,97184.00
2022-10-19T06:16:42.870Z,97181.22
2022-10-19T06:19:09.566Z,97191.34
2022-10-19T06:21:36.118Z,97156.75
2022-10-19T06:24:05.077Z,97211.09
2022-10-19T06:26:33.490Z,97217.91
2022-10-19T06:29:01.028Z,97190.88
2022-10-19T06:31:29.306Z,97207.53
2022-10-19T06:33:56.265Z,97206.31
2022-10-19T06:36:25.515Z,97194.59
2022-10-19T06:38:53.268Z,97221.72
2022-10-19T06:41:20.534Z,97217.03
2022-10-19T06:43:54.400Z,97183.38
2022-10-19T06:46:23.469Z,97200.59
2022-10-19T06:49:01.700Z,97209.84
2022-10-19T06:51:30.607Z,97235.75
2022-10-19T06:53:57.610Z,97202.97
2022-10-19T06:56:26.076Z,97216.97
2022-10-19T06:58:52.981Z,97238.56
2022-10-19T07:01:20.044Z,97222.47
2022-10-19T07:03:46.815Z,97252.56
2022-10-19T07:06:13.979Z,97207.97
2022-10-19T07:08:42.559Z,97260.63
2022-10-19T07:11:12.101Z,97262.53
2022-10-19T07:13:38.754Z,97252.63
2022-10-19T07:16:17.619Z,97246.38
2022-10-19T07:18:48.311Z,97266.38
2022-10-19T07:21:16.412Z,97262.31
2022-10-19T07:23:44.718Z,97266.81
2022-10-19T07:26:13.964Z,97271.72
2022-10-19T07:28:42.153Z,97210.59
2022-10-19T07:31:11.748Z,97234.13
2022-10-19T07:33:38.407Z,97199.84
2022-10-19T07:36:08.504Z,97270.56
2022-10-19T07:38:35.856Z,97231.63
2022-10-19T07:41:08.298Z,97276.31
2022-10-19T07:43:35.518Z,97254.59
2022-10-19T07:46:03.838Z,97270.56
2022-10-19T07:48:30.785Z,97295.41
2022-10-19T07:50:57.589Z,97273.03
2022-10-19T07:53:24.397Z,97297.53
2022-10-19T07:55:51.050Z,97270.34
2022-10-19T07:58:17.647Z,97306.28
2022-10-19T08:00:44.319Z,97284.25
2022-10-19T08:03:43.783Z,97284.13
2022-10-19T08:06:05.334Z,97263.88
2022-10-19T08:08:32.350Z,97293.25
2022-10-19T08:11:10.145Z,97294.53
2022-10-19T08:13:37.150Z,97292.41
2022-10-19T08:16:04.006Z,97311.53
2022-10-19T08:21:03.066Z,97275.78
2022-10-19T08:23:29.690Z,97280.16
2022-10-19T08:25:59.562Z,97305.19
2022-10-19T08:28:26.186Z,97299.13
2022-10-19T08:30:57.954Z,97287.13
2022-10-19T08:33:26.320Z,97324.53
2022-10-19T08:35:54.125Z,97281.22
2022-10-19T08:38:21.008Z,97307.72
2022-10-19T08:40:47.706Z,97309.47
2022-10-19T08:43:14.290Z,97324.69
2022-10-19T08:45:56.235Z,97301.56
2022-10-19T08:48:27.602Z,97304.91
2022-10-19T08:50:55.768Z,97320.78
2022-10-19T08:53:43.697Z,97338.16
2022-10-19T08:59:39.140Z,97324.16
2022-10-19T09:02:47.013Z,97322.84
2022-10-19T09:05:32.831Z,97327.78
2022-10-19T09:08:00.037Z,97278.66
2022-10-19T09:10:32.257Z,97302.03
2022-10-19T09:13:09.997Z,97267.72
2022-10-19T09:15:46.163Z,97321.47
2022-10-19T09:18:31.544Z,97248.31
2022-10-19T09:21:07.161Z,97277.53
2022-10-19T09:23:52.416Z,97334.56
2022-10-19T09:26:22.468Z,97291.25
2022-10-19T09:29:01.022Z,97291.19
2022-10-19T09:31:32.476Z,97336.41
2022-10-19T09:34:03.769Z,97341.88
2022-10-19T09:36:50.218Z,97347.44
2022-10-19T09:39:17.968Z,97342.09
2022-10-19T09:41:51.286Z,97355.09
2022-10-19T09:44:18.695Z,97359.25
2022-10-19T09:46:57.884Z,97362.50
2022-10-19T09:49:41.895Z,97360.34
2022-10-19T09:52:33.804Z,97355.91
2022-10-19T09:55:24.858Z,97368.22
2022-10-19T09:58:01.062Z,97344.91
2022-10-19T10:00:39.913Z,97355.81
2022-10-19T10:03:07.610Z,97360.38
2022-10-19T10:05:39.029Z,97359.19
2022-10-19T10:08:23.266Z,97352.94
2022-10-19T10:11:12.291Z,97367.59
2022-10-19T10:13:57.551Z,97367.28
2022-10-19T10:16:33.099Z,97354.81
2022-10-19T10:19:00.734Z,97362.50
2022-10-19T10:21:33.644Z,97353.06
2022-10-19T10:24:17.386Z,97361.03
2022-10-19T10:26:46.884Z,97340.13
2022-10-19T10:29:25.891Z,97302.72
2022-10-19T10:31:55.591Z,97355.84
2022-10-19T10:34:50.601Z,97332.94
2022-10-19T10:37:27.729Z,97337.00
2022-10-19T10:39:59.174Z,97359.25
2022-10-19T10:42:41.274Z,97295.22
2022-10-19T10:45:32.393Z,97288.03
2022-10-19T10:48:11.979Z,97303.94
2022-10-19T10:50:38.777Z,97345.13
2022-10-19T10:53:24.028Z,97309.53
2022-10-19T10:55:56.391Z,97326.56
2022-10-19T10:58:41.329Z,97332.69
2022-10-19T11:01:18.961Z,97247.06
2022-10-19T11:03:52.811Z,97268.78
2022-10-19T11:09:11.718Z,97328.09
2022-10-19T11:11:46.559Z,97331.84
2022-10-19T11:14:49.618Z,97330.75
2022-10-19T11:17:27.729Z,97299.09
2022-10-19T11:19:54.465Z,97298.25
2022-10-19T11:22:26.314Z,97321.59
2022-10-19T11:25:16.911Z,97312.94
2022-10-19T11:28:12.923Z,97280.69
2022-10-19T11:31:07.499Z,97311.72
2022-10-19T11:36:30.116Z,97263.38
2022-10-19T11:39:15.528Z,97295.97
2022-10-19T11:41:56.539Z,97289.44
2022-10-19T11:44:45.985Z,97287.50
2022-10-19T11:47:52.140Z,97289.91
2022-10-19T11:50:44.128Z,97252.06
2022-10-19T11:53:32.341Z,97242.53
2022-10-19T11:56:39.164Z,97270.25
2022-10-19T11:59:33.765Z,97273.00
2022-10-19T12:02:45.334Z,97272.34
2022-10-19T12:05:36.556Z,97269.50
2022-10-19T12:08:32.585Z,97271.88
2022-10-19T12:11:36.381Z,97180.41
2022-10-19T12:14:06.258Z,97146.63
2022-10-19T12:16:53.807Z,97231.13
2022-10-19T12:19:24.960Z,97229.59
2022-10-19T12:21:55.529Z,97252.22
2022-10-19T12:24:25.720Z,97258.56
2022-10-19T12:26:54.808Z,97266.03
2022-10-19T12:29:39.835Z,97234.91
2022-10-19T12:32:08.042Z,97236.72
2022-10-19T12:35:12.498Z,97260.19
2022-10-19T12:37:55.285Z,97242.28
2022-10-19T12:40:28.022Z,97252.44
2022-10-19T12:43:18.057Z,97247.03
2022-10-19T12:46:11.015Z,97239.50
2022-10-19T12:48:39.245Z,97221.81
2022-10-19T12:51:11.999Z,97222.19
2022-10-19T12:53:48.875Z,97211.56
2022-10-19T12:56:22.970Z,97205.50
2022-10-19T12:59:01.753Z,97228.56
2022-10-19T13:01:28.476Z,97241.59
2022-10-19T13:04:29.723Z,97239.22
2022-10-19T13:06:56.323Z,97236.78
2022-10-19T13:09:22.887Z,97232.09
2022-10-19T13:12:21.991Z,97230.94
2022-10-19T13:14:53.020Z,97227.31
2022-10-19T13:17:36.535Z,97232.00
2022-10-19T13:20:15.613Z,97221.44
2022-10-19T13:22:45.930Z,97216.00
2022-10-19T13:25:28.112Z,97214.00
2022-10-19T13:28:01.704Z,97211.22
2022-10-19T13:30:46.604Z,97214.44
2022-10-19T13:33:25.702Z,97217.44
2022-10-19T13:35:58.432Z,97220.53
2022-10-19T13:38:43.422Z,97223.97
2022-10-19T13:41:15.758Z,97235.28
2022-10-19T13:44:01.213Z,97228.38
2022-10-19T13:46:30.880Z,97217.72
2022-10-19T13:49:27.830Z,97217.88
2022-10-19T13:52:09.060Z,97215.00
2022-10-19T13:55:22.008Z,97208.28
2022-10-19T13:58:14.074Z,97207.59
2022-10-19T14:01:18.418Z,97201.31
2022-10-19T14:04:14.562Z,97195.88
2022-10-19T14:07:00.038Z,97169.09
2022-10-19T14:09:46.823Z,97196.09
2022-10-19T14:12:23.761Z,97196.06
2022-10-19T14:14:53.523Z,97184.72
2022-10-19T14:17:27.878Z,97196.50
2022-10-19T14:19:57.180Z,97169.44
2022-10-19T14:22:42.178Z,97163.66
2022-10-19T14:25:21.990Z,97177.50
2022-10-19T14:27:56.883Z,97158.44
2022-10-19T14:30:35.618Z,97170.53
2022-10-19T14:33:09.044Z,97182.53
2022-10-19T14:35:37.848Z,97159.56
2022-10-19T14:38:15.095Z,97176.88
2022-10-19T14:40:42.134Z,97140.03
2022-10-19T14:43:20.027Z,97182.88
2022-10-19T14:46:04.174Z,97169.44
2022-10-19T14:48:31.073Z,97173.09
2022-10-19T14:50:58.324Z,97128.34
2022-10-19T14:53:34.071Z,97175.19
2022-10-19T14:56:13.853Z,97155.91
2022-10-19T14:59:02.975Z,97172.34
2022-10-19T15:01:29.622Z,97154.16
2022-10-19T15:03:56.630Z,97104.63
2022-10-19T15:06:30.439Z,97086.59
2022-10-19T15:09:03.007Z,97161.56
2022-10-19T15:11:33.308Z,97072.69
2022-10-19T15:14:14.275Z,97136.75
2022-10-19T15:16:52.057Z,97153.16
2022-10-19T15:19:31.823Z,97147.88
2022-10-19T15:22:13.701Z,97145.75
2022-10-19T15:24:53.756Z,97149.06
2022-10-19T15:27:22.697Z,97146.09
2022-10-19T15:30:01.544Z,97118.22
2022-10-19T15:32:43.644Z,97109.53
2022-10-19T15:35:12.503Z,97066.97
2022-10-19T15:37:43.565Z,97135.25
2022-10-19T15:40:21.066Z,97081.06
2022-10-19T15:42:48.978Z,97138.19
2022-10-19T15:45:38.152Z,97131.03
2022-10-19T15:48:10.916Z,97129.94
2022-10-19T15:50:42.845Z,97130.09
2022-10-19T15:53:09.805Z,97131.50
2022-10-19T15:55:36.547Z,97070.91
2022-10-19T15:58:03.187Z,97111.72
2022-10-19T16:00:30.366Z,97096.28
2022-10-19T16:02:57.018Z,97111.69
2022-10-19T16:05:24.270Z,97092.69
2022-10-19T16:07:50.992Z,97094.06
2022-10-19T16:10:21.244Z,97081.25
2022-10-19T16:12:47.856Z,97120.25
2022-10-19T16:15:22.085Z,97103.25
2022-10-19T16:18:00.863Z,97116.97
2022-10-19T16:20:29.238Z,97131.28
2022-10-19T16:22:56.182Z,97086.75
2022-10-19T16:25:22.889Z,97105.75
2022-10-19T16:27:49.692Z,97124.69
2022-10-19T16:30:16.434Z,97015.75
2022-10-19T16:32:43.169Z,97028.97
2022-10-19T16:35:10.345Z,97091.34
2022-10-19T16:37:37.434Z,97119.94
2022-10-19T16:40:05.341Z,97091.56
2022-10-19T16:42:32.641Z,97107.28
2022-10-19T16:44:59.529Z,97001.28
2022-10-19T16:47:26.344Z,96995.16
2022-10-19T16:50:01.631Z,97102.94
2022-10-19T16:52:34.279Z,97086.41
2022-10-19T16:55:01.446Z,97078.72
2022-10-19T16:57:30.935Z,97075.19
2022-10-19T16:59:57.580Z,97068.16
2022-10-19T17:02:24.265Z,97081.41
2022-10-19T17:04:51.005Z,97118.75
2022-10-19T17:07:18.320Z,97104.56
2022-10-19T17:09:45.147Z,97058.69
2022-10-19T17:12:12.263Z,97070.78
2022-10-19T17:14:40.862Z,97109.63
2022-10-19T17:17:08.559Z,97068.50
2022-10-19T17:19:36.537Z,97111.41
2022-10-19T17:22:05.170Z,97107.13
2022-10-19T17:24:32.218Z,97113.81
2022-10-19T17:27:01.589Z,97107.84
2022-10-19T17:29:28.240Z,97048.84
2022-10-19T17:31:55.119Z,97107.94
2022-10-19T17:34:21.850Z,97111.53
2022-10-19T17:36:48.762Z,97052.34
2022-10-19T17:39:19.087Z,97113.63
2022-10-19T17:41:47.156Z,97097.13
2022-10-19T17:44:14.389Z,97103.09
2022-10-19T17:46:41.343Z,97034.19
2022-10-19T17:49:08.936Z,96988.53
2022-10-19T17:51:36.166Z,97020.72
2022-10-19T17:54:05.626Z,97063.19
2022-10-19T17:56:32.557Z,97084.69
2022-10-19T17:59:00.146Z,97114.44
2022-10-19T18:01:27.506Z,97115.31
2022-10-19T18:03:54.129Z,97086.28
2022-10-19T18:06:23.648Z,97124.09
2022-10-19T18:08:53.201Z,97113.06
2022-10-19T18:11:22.788Z,97122.72
2022-10-19T18:13:50.750Z,97117.84
2022-10-19T18:16:23.255Z,97117.63
2022-10-19T18:18:52.043Z,97117.91
2022-10-19T18:21:21.542Z,97123.09
2022-10-19T18:23:48.931Z,97093.78
2022-10-19T18:26:19.722Z,97085.47
2022-10-19T18:28:46.759Z,97022.78
2022-10-19T18:31:19.650Z,97116.91
2022-10-19T18:33:47.774Z,97119.06
2022-10-19T18:36:15.162Z,97114.16
2022-10-19T18:38:42.143Z,97068.28
2022-10-19T18:43:39.516Z,97066.34
2022-10-19T18:46:07.462Z,97065.75
2022-10-19T18:48:36.757Z,97109.91
2022-10-19T18:51:06.706Z,97102.63
2022-10-19T18:53:34.022Z,97097.84
2022-10-19T18:56:03.449Z,97098.50
2022-10-19T18:58:50.507Z,97040.63
2022-10-19T19:01:19.994Z,97081.72
2022-10-19T19:03:51.551Z,97061.91
2022-10-19T19:06:29.760Z,97103.69
2022-10-19T19:08:58.100Z,97071.94
2022-10-19T19:11:27.112Z,97069.31
2022-10-19T19:14:07.479Z,97098.31
2022-10-19T19:16:36.512Z,97096.91
2022-10-19T19:19:03.872Z,97097.53
2022-10-19T19:21:31.891Z,97099.00
2022-10-19T19:24:01.113Z,97099.94
2022-10-19T19:26:31.593Z,97081.38
2022-10-19T19:28:58.577Z,97013.28
2022-10-19T19:31:25.678Z,97088.16
2022-10-19T19:33:52.468Z,97057.34
2022-10-19T19:36:20.268Z,97095.84
2022-10-19T19:38:49.022Z,97098.75
2022-10-19T19:41:16.621Z,97049.44
2022-10-19T19:43:43.724Z,97060.38
2022-10-19T19:46:18.714Z,97084.25
2022-10-19T19:48:47.612Z,97100.66
2022-10-19T19:51:17.310Z,97094.63
2022-10-19T19:53:44.945Z,97049.44
2022-10-19T19:56:13.000Z,97049.38
2022-10-19T19:58:41.220Z,97084.56
2022-10-19T20:01:16.716Z,97062.72
2022-10-19T20:03:43.976Z,97079.22
2022-10-19T20:06:11.007Z,97094.34
2022-10-19T20:08:38.551Z,97086.69
2022-10-19T20:11:11.520Z,97047.75
2022-10-19T20:13:38.684Z,97046.31
2022-10-19T20:16:14.011Z,97098.53
2022-10-19T20:18:43.389Z,97101.81
2022-10-19T20:21:10.179Z,97082.84
2022-10-19T20:23:37.144Z,97116.69
2022-10-19T20:26:04.138Z,97088.16
2022-10-19T20:28:34.025Z,97041.03
2022-10-19T20:31:06.606Z,97108.75
2022-10-19T20:33:35.386Z,97112.00
2022-10-19T20:36:08.009Z,97080.44
2022-10-19T20:38:36.099Z,97038.31
2022-10-19T20:41:07.778Z,97092.75
2022-10-19T20:43:36.677Z,97107.03
2022-10-19T20:46:15.179Z,97107.09
2022-10-19T20:48:41.983Z,97104.25
2022-10-19T20:51:32.541Z,97106.19
2022-10-19T20:54:01.712Z,97094.78
2022-10-19T20:56:33.339Z,96962.94
2022-10-19T20:59:06.314Z,97082.53
2022-10-19T21:01:34.943Z,97065.59
2022-10-19T21:04:04.717Z,97086.78
2022-10-19T21:06:33.337Z,97089.94
2022-10-19T21:09:01.054Z,97092.75
2022-10-19T21:11:30.799Z,97091.69
2022-10-19T21:14:00.163Z,97004.28
2022-10-19T21:16:28.423Z,97085.31
2022-10-19T21:18:55.313Z,97006.69
2022-10-19T21:21:23.565Z,97091.28
2022-10-19T21:23:54.005Z,97096.25
2022-10-19T21:26:21.027Z,97082.81
2022-10-19T21:28:49.232Z,97057.88
2022-10-19T21:31:17.862Z,97081.00
2022-10-19T21:33:45.397Z,97088.66
2022-10-19T21:36:14.090Z,97053.84
2022-10-19T21:38:42.042Z,97095.59
2022-10-19T21:41:19.675Z,97064.47
2022-10-19T21:43:49.030Z,97086.53
2022-10-19T21:46:18.397Z,97047.69
2022-10-19T21:48:46.164Z,97082.94
2022-10-19T21:51:34.280Z,97080.31
2022-10-19T21:54:01.658Z,97040.81
2022-10-19T21:56:28.609Z,97006.19
2022-10-19T21:58:55.619Z,97037.47
2022-10-19T22:01:25.549Z,97029.75
2022-10-19T22:04:03.653Z,97056.06
2022-10-19T22:06:33.394Z,97055.34
2022-10-19T22:09:00.878Z,97067.69
2022-10-19T22:11:28.317Z,96975.75
2022-10-19T22:14:01.460Z,97031.81
2022-10-19T22:16:29.499Z,97007.50
2022-10-19T22:18:57.121Z,97056.19
2022-10-19T22:21:27.957Z,97054.63
2022-10-19T22:24:00.881Z,97009.97
2022-10-19T22:26:29.911Z,97027.50
2022-10-19T22:28:58.209Z,97035.97
2022-10-19T22:31:26.840Z,97014.00
2022-10-19T22:33:53.738Z,97032.22
2022-10-19T22:36:20.695Z,96972.41
2022-10-19T22:38:47.773Z,97010.28
2022-10-19T22:41:14.450Z,97031.41
2022-10-19T22:43:41.022Z,97032.69
2022-10-19T22:46:07.819Z,96983.09
2022-10-19T22:48:34.591Z,96963.91
2022-10-19T22:51:01.170Z,97019.63
2022-10-19T22:53:27.743Z,96964.69
2022-10-19T22:55:54.513Z,96990.91
2022-10-19T22:58:21.206Z,96998.66
2022-10-19T23:01:08.688Z,97008.28
2022-10-19T23:03:35.844Z,96984.56
2022-10-19T23:06:02.499Z,96976.69
2022-10-19T23:08:29.408Z,97006.44
2022-10-19T23:10:56.132Z,96966.56
2022-10-19T23:13:22.903Z,96959.09
2022-10-19T23:15:50.799Z,96976.41
2022-10-19T23:18:18.076Z,96972.28
2022-10-19T23:20:57.158Z,97012.13
2022-10-19T23:23:24.154Z,97008.00
2022-10-19T23:26:05.845Z,96980.16
2022-10-19T23:28:35.035Z,96930.34
2022-10-19T23:31:14.197Z,97022.66
2022-10-19T23:33:41.161Z,97014.38
2022-10-19T23:36:17.102Z,96902.50
2022-10-19T23:38:44.915Z,96951.81
2022-10-19T23:41:12.289Z,97020.59
2022-10-19T23:43:39.773Z,97019.84
2022-10-19T23:46:06.982Z,96954.84
2022-10-19T23:48:34.509Z,96973.41
2022-10-19T23:51:04.212Z,97012.44
2022-10-19T23:53:35.674Z,97003.59
2022-10-19T23:56:14.212Z,97007.78
2022-10-19T23:58:41.093Z,97008.81
